Archival Weather

Chicago O'hare International

Chicago O'hare International, Illinois (KORD)

Report from: Saturday, May 14, 2022 1:51 AM CDT
Current time: Monday, May 23, 2022 3:28 AM CDT

Current weather
Weather history
Weather forecast

Temperature21.7°C (71.1°F)
Dew point13.9°C (57.0°F)
Winds Calm
Visibility10 mi. (16.1 km)
Clouds Few clouds 9,000 ft. (2,743 m)
Ceiling: Broken clouds 25,000 ft. (7,620 m)
Altimeter29.90 in.Hg (1013 mB)
Relative humidity61 %
Density altitude1,026 ft. (313 m)
Sea-level pressure101.2 kPa (1012 mB, 29.88 in.Hg)
Remarks Automated weather observing station with precipitation discriminator
Flight conditions Visual Meteorological Conditions
Raw dataKORD 140651Z 00000KT 10SM FEW090 BKN250 22/14 A2990 RMK AO2 SLP120 T02170139
An error has occurred. This application may no longer respond until reloaded. Reload 🗙